sensor_id;sensor_type;location;lat;lon;timestamp;temperature;humidity
1988;DHT22;12775;46.994;15.498;2022-08-16T00:01:32;24.40;86.70
1988;DHT22;12775;46.994;15.498;2022-08-16T00:04:00;24.30;87.10
1988;DHT22;12775;46.994;15.498;2022-08-16T00:06:28;24.30;86.20
1988;DHT22;12775;46.994;15.498;2022-08-16T00:08:54;24.30;86.20
1988;DHT22;12775;46.994;15.498;2022-08-16T00:11:22;24.30;87.40
1988;DHT22;12775;46.994;15.498;2022-08-16T00:13:49;24.30;87.50
1988;DHT22;12775;46.994;15.498;2022-08-16T00:16:16;24.30;87.90
1988;DHT22;12775;46.994;15.498;2022-08-16T00:18:44;24.30;88.90
1988;DHT22;12775;46.994;15.498;2022-08-16T00:21:11;24.30;89.90
1988;DHT22;12775;46.994;15.498;2022-08-16T00:23:38;24.20;89.30
1988;DHT22;12775;46.994;15.498;2022-08-16T00:26:06;24.20;89.10
1988;DHT22;12775;46.994;15.498;2022-08-16T00:28:33;24.20;89.40
1988;DHT22;12775;46.994;15.498;2022-08-16T00:31:01;24.10;89.50
1988;DHT22;12775;46.994;15.498;2022-08-16T00:33:28;24.10;88.00
1988;DHT22;12775;46.994;15.498;2022-08-16T00:35:55;24.10;87.60
1988;DHT22;12775;46.994;15.498;2022-08-16T00:38:23;24.10;88.80
1988;DHT22;12775;46.994;15.498;2022-08-16T00:40:51;24.00;88.60
1988;DHT22;12775;46.994;15.498;2022-08-16T00:43:20;24.00;88.60
1988;DHT22;12775;46.994;15.498;2022-08-16T00:46:20;24.00;88.30
1988;DHT22;12775;46.994;15.498;2022-08-16T00:48:29;24.00;89.50
1988;DHT22;12775;46.994;15.498;2022-08-16T00:50:56;23.90;90.10
1988;DHT22;12775;46.994;15.498;2022-08-16T00:53:24;23.90;89.10
1988;DHT22;12775;46.994;15.498;2022-08-16T00:55:52;23.90;88.30
1988;DHT22;12775;46.994;15.498;2022-08-16T00:58:20;23.80;90.00
1988;DHT22;12775;46.994;15.498;2022-08-16T01:00:47;23.80;90.00
1988;DHT22;12775;46.994;15.498;2022-08-16T01:03:15;23.80;90.20
1988;DHT22;12775;46.994;15.498;2022-08-16T01:05:42;23.70;89.50
1988;DHT22;12775;46.994;15.498;2022-08-16T01:08:10;23.70;89.00
1988;DHT22;12775;46.994;15.498;2022-08-16T01:10:37;23.60;89.40
1988;DHT22;12775;46.994;15.498;2022-08-16T01:13:08;23.60;89.20
1988;DHT22;12775;46.994;15.498;2022-08-16T01:15:35;23.60;88.60
1988;DHT22;12775;46.994;15.498;2022-08-16T01:18:01;23.60;89.40
1988;DHT22;12775;46.994;15.498;2022-08-16T01:20:28;23.60;90.10
1988;DHT22;12775;46.994;15.498;2022-08-16T01:23:01;23.50;89.70
1988;DHT22;12775;46.994;15.498;2022-08-16T01:25:28;23.50;89.30
1988;DHT22;12775;46.994;15.498;2022-08-16T01:27:56;23.40;88.90
1988;DHT22;12775;46.994;15.498;2022-08-16T01:30:24;23.40;89.00
1988;DHT22;12775;46.994;15.498;2022-08-16T01:32:51;23.40;91.00
1988;DHT22;12775;46.994;15.498;2022-08-16T01:35:21;23.30;91.10
1988;DHT22;12775;46.994;15.498;2022-08-16T01:37:49;23.30;91.10
1988;DHT22;12775;46.994;15.498;2022-08-16T01:40:16;23.20;91.00
1988;DHT22;12775;46.994;15.498;2022-08-16T01:42:43;23.10;91.10
1988;DHT22;12775;46.994;15.498;2022-08-16T01:45:10;23.10;91.50
1988;DHT22;12775;46.994;15.498;2022-08-16T01:47:37;23.00;90.80
1988;DHT22;12775;46.994;15.498;2022-08-16T01:50:06;23.00;90.50
1988;DHT22;12775;46.994;15.498;2022-08-16T01:52:33;23.00;90.40
1988;DHT22;12775;46.994;15.498;2022-08-16T01:55:00;23.00;90.80
1988;DHT22;12775;46.994;15.498;2022-08-16T01:57:28;22.90;90.80
1988;DHT22;12775;46.994;15.498;2022-08-16T01:59:55;22.90;90.60
1988;DHT22;12775;46.994;15.498;2022-08-16T02:02:22;22.90;91.60
1988;DHT22;12775;46.994;15.498;2022-08-16T02:04:50;22.90;91.60
1988;DHT22;12775;46.994;15.498;2022-08-16T02:07:17;22.90;91.50
1988;DHT22;12775;46.994;15.498;2022-08-16T02:09:46;22.90;91.60
1988;DHT22;12775;46.994;15.498;2022-08-16T02:12:13;22.90;91.50
1988;DHT22;12775;46.994;15.498;2022-08-16T02:14:40;22.90;91.50
1988;DHT22;12775;46.994;15.498;2022-08-16T02:17:08;22.80;91.30
1988;DHT22;12775;46.994;15.498;2022-08-16T02:19:37;22.80;91.30
1988;DHT22;12775;46.994;15.498;2022-08-16T02:22:04;22.80;91.80
1988;DHT22;12775;46.994;15.498;2022-08-16T02:24:31;22.80;92.50
1988;DHT22;12775;46.994;15.498;2022-08-16T02:26:58;22.70;92.50
1988;DHT22;12775;46.994;15.498;2022-08-16T02:29:26;22.70;91.90
1988;DHT22;12775;46.994;15.498;2022-08-16T02:31:55;22.70;92.10
1988;DHT22;12775;46.994;15.498;2022-08-16T02:34:22;22.60;91.60
1988;DHT22;12775;46.994;15.498;2022-08-16T02:36:49;22.60;92.20
1988;DHT22;12775;46.994;15.498;2022-08-16T02:39:17;22.50;92.10
1988;DHT22;12775;46.994;15.498;2022-08-16T02:41:45;22.50;92.50
1988;DHT22;12775;46.994;15.498;2022-08-16T02:44:12;22.50;92.30
1988;DHT22;12775;46.994;15.498;2022-08-16T02:46:40;22.50;92.70
1988;DHT22;12775;46.994;15.498;2022-08-16T02:49:06;22.40;93.00
1988;DHT22;12775;46.994;15.498;2022-08-16T02:51:34;22.40;93.20
1988;DHT22;12775;46.994;15.498;2022-08-16T02:54:01;22.20;94.10
1988;DHT22;12775;46.994;15.498;2022-08-16T02:56:29;22.20;93.90
1988;DHT22;12775;46.994;15.498;2022-08-16T02:58:57;22.10;94.00
1988;DHT22;12775;46.994;15.498;2022-08-16T03:01:27;22.10;94.10
1988;DHT22;12775;46.994;15.498;2022-08-16T03:03:52;22.10;93.80
1988;DHT22;12775;46.994;15.498;2022-08-16T03:06:19;22.00;94.80
1988;DHT22;12775;46.994;15.498;2022-08-16T03:08:47;22.00;94.40
1988;DHT22;12775;46.994;15.498;2022-08-16T03:11:14;22.00;94.60
1988;DHT22;12775;46.994;15.498;2022-08-16T03:13:41;21.90;94.50
1988;DHT22;12775;46.994;15.498;2022-08-16T03:16:08;21.90;94.30
1988;DHT22;12775;46.994;15.498;2022-08-16T03:18:36;21.90;94.40
1988;DHT22;12775;46.994;15.498;2022-08-16T03:21:03;21.90;94.80
1988;DHT22;12775;46.994;15.498;2022-08-16T03:23:31;21.90;94.00
1988;DHT22;12775;46.994;15.498;2022-08-16T03:25:58;21.90;93.80
1988;DHT22;12775;46.994;15.498;2022-08-16T03:28:26;21.90;93.50
1988;DHT22;12775;46.994;15.498;2022-08-16T03:30:53;21.90;93.70
1988;DHT22;12775;46.994;15.498;2022-08-16T03:33:21;21.90;93.80
1988;DHT22;12775;46.994;15.498;2022-08-16T03:35:48;21.90;94.10
1988;DHT22;12775;46.994;15.498;2022-08-16T03:38:15;21.90;94.10
1988;DHT22;12775;46.994;15.498;2022-08-16T03:40:43;21.90;93.90
1988;DHT22;12775;46.994;15.498;2022-08-16T03:43:10;21.80;94.50
1988;DHT22;12775;46.994;15.498;2022-08-16T03:45:38;21.80;94.20
1988;DHT22;12775;46.994;15.498;2022-08-16T03:48:05;21.80;94.10
1988;DHT22;12775;46.994;15.498;2022-08-16T03:50:32;21.80;94.70
1988;DHT22;12775;46.994;15.498;2022-08-16T03:53:00;21.70;94.20
1988;DHT22;12775;46.994;15.498;2022-08-16T03:55:27;21.80;94.50
1988;DHT22;12775;46.994;15.498;2022-08-16T03:57:54;21.80;94.50
1988;DHT22;12775;46.994;15.498;2022-08-16T04:00:24;21.70;94.40
1988;DHT22;12775;46.994;15.498;2022-08-16T04:02:51;21.70;94.70
1988;DHT22;12775;46.994;15.498;2022-08-16T04:05:17;21.60;95.10
1988;DHT22;12775;46.994;15.498;2022-08-16T04:07:45;21.60;94.90
1988;DHT22;12775;46.994;15.498;2022-08-16T04:12:43;21.60;95.60
1988;DHT22;12775;46.994;15.498;2022-08-16T04:15:10;21.60;96.20
1988;DHT22;12775;46.994;15.498;2022-08-16T04:17:37;21.50;96.40
1988;DHT22;12775;46.994;15.498;2022-08-16T04:20:05;21.40;96.70
1988;DHT22;12775;46.994;15.498;2022-08-16T04:22:34;21.40;96.80
1988;DHT22;12775;46.994;15.498;2022-08-16T04:25:02;21.40;96.80
1988;DHT22;12775;46.994;15.498;2022-08-16T04:27:28;21.40;97.20
1988;DHT22;12775;46.994;15.498;2022-08-16T04:29:57;21.30;97.80
1988;DHT22;12775;46.994;15.498;2022-08-16T04:32:24;21.20;98.20
1988;DHT22;12775;46.994;15.498;2022-08-16T04:34:51;21.10;98.60
1988;DHT22;12775;46.994;15.498;2022-08-16T04:37:19;20.90;99.00
1988;DHT22;12775;46.994;15.498;2022-08-16T04:39:46;21.00;99.30
1988;DHT22;12775;46.994;15.498;2022-08-16T04:42:15;21.10;99.40
1988;DHT22;12775;46.994;15.498;2022-08-16T04:44:42;21.10;99.80
1988;DHT22;12775;46.994;15.498;2022-08-16T04:47:10;21.00;99.80
1988;DHT22;12775;46.994;15.498;2022-08-16T04:49:37;21.00;99.80
1988;DHT22;12775;46.994;15.498;2022-08-16T04:52:04;21.10;99.70
1988;DHT22;12775;46.994;15.498;2022-08-16T04:54:32;21.00;99.90
1988;DHT22;12775;46.994;15.498;2022-08-16T04:56:59;21.10;99.80
1988;DHT22;12775;46.994;15.498;2022-08-16T04:59:26;21.10;99.80
1988;DHT22;12775;46.994;15.498;2022-08-16T05:04:26;21.30;99.90
1988;DHT22;12775;46.994;15.498;2022-08-16T05:06:54;21.30;99.90
1988;DHT22;12775;46.994;15.498;2022-08-16T05:09:21;21.40;99.90
1988;DHT22;12775;46.994;15.498;2022-08-16T05:11:49;21.40;99.90
1988;DHT22;12775;46.994;15.498;2022-08-16T05:14:16;21.60;99.90
1988;DHT22;12775;46.994;15.498;2022-08-16T05:16:43;21.70;99.90
1988;DHT22;12775;46.994;15.498;2022-08-16T05:19:11;21.70;99.90
1988;DHT22;12775;46.994;15.498;2022-08-16T05:21:38;21.70;99.90
1988;DHT22;12775;46.994;15.498;2022-08-16T05:24:06;21.70;99.90
1988;DHT22;12775;46.994;15.498;2022-08-16T05:26:33;21.80;99.90
1988;DHT22;12775;46.994;15.498;2022-08-16T05:29:00;22.00;99.90
1988;DHT22;12775;46.994;15.498;2022-08-16T05:31:28;22.10;99.90
1988;DHT22;12775;46.994;15.498;2022-08-16T05:33:55;22.30;99.90
1988;DHT22;12775;46.994;15.498;2022-08-16T05:36:22;22.50;99.10
1988;DHT22;12775;46.994;15.498;2022-08-16T05:38:50;22.70;99.10
1988;DHT22;12775;46.994;15.498;2022-08-16T05:41:17;22.90;98.10
1988;DHT22;12775;46.994;15.498;2022-08-16T05:43:45;23.10;98.10
1988;DHT22;12775;46.994;15.498;2022-08-16T05:46:13;23.40;97.50
1988;DHT22;12775;46.994;15.498;2022-08-16T05:48:39;23.50;97.00
1988;DHT22;12775;46.994;15.498;2022-08-16T05:51:07;23.80;97.90
1988;DHT22;12775;46.994;15.498;2022-08-16T05:53:34;24.10;97.20
1988;DHT22;12775;46.994;15.498;2022-08-16T05:56:02;24.20;94.90
1988;DHT22;12775;46.994;15.498;2022-08-16T05:58:29;24.40;93.30
1988;DHT22;12775;46.994;15.498;2022-08-16T06:00:57;24.70;93.60
1988;DHT22;12775;46.994;15.498;2022-08-16T06:03:24;24.90;92.40
1988;DHT22;12775;46.994;15.498;2022-08-16T06:05:51;25.20;95.20
1988;DHT22;12775;46.994;15.498;2022-08-16T06:08:19;25.40;91.20
1988;DHT22;12775;46.994;15.498;2022-08-16T06:10:46;25.60;96.60
1988;DHT22;12775;46.994;15.498;2022-08-16T06:13:13;25.80;93.70
1988;DHT22;12775;46.994;15.498;2022-08-16T06:15:41;25.90;94.20
1988;DHT22;12775;46.994;15.498;2022-08-16T06:18:08;26.00;93.80
1988;DHT22;12775;46.994;15.498;2022-08-16T06:20:36;26.10;92.50
1988;DHT22;12775;46.994;15.498;2022-08-16T06:23:03;26.30;95.10
1988;DHT22;12775;46.994;15.498;2022-08-16T06:25:31;26.50;93.70
1988;DHT22;12775;46.994;15.498;2022-08-16T06:27:59;26.60;92.30
1988;DHT22;12775;46.994;15.498;2022-08-16T06:30:26;26.60;91.00
1988;DHT22;12775;46.994;15.498;2022-08-16T06:32:53;26.70;90.80
1988;DHT22;12775;46.994;15.498;2022-08-16T06:35:21;26.80;90.50
1988;DHT22;12775;46.994;15.498;2022-08-16T06:37:48;26.90;90.20
1988;DHT22;12775;46.994;15.498;2022-08-16T06:40:16;27.00;90.70
1988;DHT22;12775;46.994;15.498;2022-08-16T06:42:43;27.10;88.00
1988;DHT22;12775;46.994;15.498;2022-08-16T06:45:10;27.10;88.80
1988;DHT22;12775;46.994;15.498;2022-08-16T06:47:38;27.20;87.40
1988;DHT22;12775;46.994;15.498;2022-08-16T06:50:06;27.20;87.20
1988;DHT22;12775;46.994;15.498;2022-08-16T06:52:33;27.20;85.10
1988;DHT22;12775;46.994;15.498;2022-08-16T06:55:03;27.20;84.40
1988;DHT22;12775;46.994;15.498;2022-08-16T06:57:29;27.20;84.80
1988;DHT22;12775;46.994;15.498;2022-08-16T06:59:56;27.20;84.30
1988;DHT22;12775;46.994;15.498;2022-08-16T07:02:24;27.20;85.60
1988;DHT22;12775;46.994;15.498;2022-08-16T07:04:51;27.20;87.00
1988;DHT22;12775;46.994;15.498;2022-08-16T07:07:18;27.30;87.80
1988;DHT22;12775;46.994;15.498;2022-08-16T07:09:46;27.30;85.60
1988;DHT22;12775;46.994;15.498;2022-08-16T07:12:14;27.20;81.60
1988;DHT22;12775;46.994;15.498;2022-08-16T07:14:41;27.30;83.10
1988;DHT22;12775;46.994;15.498;2022-08-16T07:17:09;27.30;82.10
1988;DHT22;12775;46.994;15.498;2022-08-16T07:19:36;27.30;82.00
1988;DHT22;12775;46.994;15.498;2022-08-16T07:22:04;27.30;82.10
1988;DHT22;12775;46.994;15.498;2022-08-16T07:24:31;27.40;84.60
1988;DHT22;12775;46.994;15.498;2022-08-16T07:26:59;27.30;80.00
1988;DHT22;12775;46.994;15.498;2022-08-16T07:29:26;27.30;85.80
1988;DHT22;12775;46.994;15.498;2022-08-16T07:31:53;27.00;85.70
1988;DHT22;12775;46.994;15.498;2022-08-16T07:34:21;26.90;86.40
1988;DHT22;12775;46.994;15.498;2022-08-16T07:36:48;26.60;86.40
1988;DHT22;12775;46.994;15.498;2022-08-16T07:39:16;26.50;88.40
1988;DHT22;12775;46.994;15.498;2022-08-16T07:41:43;26.30;88.00
1988;DHT22;12775;46.994;15.498;2022-08-16T07:44:10;26.20;89.70
1988;DHT22;12775;46.994;15.498;2022-08-16T07:46:38;26.00;89.90
1988;DHT22;12775;46.994;15.498;2022-08-16T07:49:05;26.00;90.20
1988;DHT22;12775;46.994;15.498;2022-08-16T07:51:33;26.10;90.10
1988;DHT22;12775;46.994;15.498;2022-08-16T07:54:00;26.10;90.00
1988;DHT22;12775;46.994;15.498;2022-08-16T07:56:28;26.20;91.60
1988;DHT22;12775;46.994;15.498;2022-08-16T07:58:55;26.10;90.90
1988;DHT22;12775;46.994;15.498;2022-08-16T08:01:22;26.20;91.30
1988;DHT22;12775;46.994;15.498;2022-08-16T08:03:49;26.20;90.90
1988;DHT22;12775;46.994;15.498;2022-08-16T08:06:19;26.30;91.20
1988;DHT22;12775;46.994;15.498;2022-08-16T08:08:45;26.40;91.40
1988;DHT22;12775;46.994;15.498;2022-08-16T08:11:13;26.40;90.10
1988;DHT22;12775;46.994;15.498;2022-08-16T08:13:40;26.60;91.00
1988;DHT22;12775;46.994;15.498;2022-08-16T08:16:08;26.70;90.40
1988;DHT22;12775;46.994;15.498;2022-08-16T08:18:35;26.60;87.80
1988;DHT22;12775;46.994;15.498;2022-08-16T08:21:02;26.80;91.60
1988;DHT22;12775;46.994;15.498;2022-08-16T08:23:30;26.80;89.30
1988;DHT22;12775;46.994;15.498;2022-08-16T08:25:58;27.00;91.40
1988;DHT22;12775;46.994;15.498;2022-08-16T08:28:25;26.90;91.30
1988;DHT22;12775;46.994;15.498;2022-08-16T08:30:52;27.10;87.60
1988;DHT22;12775;46.994;15.498;2022-08-16T08:33:19;27.30;93.30
1988;DHT22;12775;46.994;15.498;2022-08-16T08:35:47;27.60;90.80
1988;DHT22;12775;46.994;15.498;2022-08-16T08:38:14;27.70;86.30
1988;DHT22;12775;46.994;15.498;2022-08-16T08:40:42;27.80;88.40
1988;DHT22;12775;46.994;15.498;2022-08-16T08:43:09;27.90;90.30
1988;DHT22;12775;46.994;15.498;2022-08-16T08:45:36;28.10;90.20
1988;DHT22;12775;46.994;15.498;2022-08-16T08:48:05;28.20;88.30
1988;DHT22;12775;46.994;15.498;2022-08-16T08:50:32;28.20;90.00
1988;DHT22;12775;46.994;15.498;2022-08-16T08:52:58;28.20;90.00
1988;DHT22;12775;46.994;15.498;2022-08-16T08:55:26;28.20;89.90
1988;DHT22;12775;46.994;15.498;2022-08-16T08:57:54;28.20;87.80
1988;DHT22;12775;46.994;15.498;2022-08-16T09:00:23;28.20;86.00
1988;DHT22;12775;46.994;15.498;2022-08-16T09:02:49;28.30;91.60
1988;DHT22;12775;46.994;15.498;2022-08-16T09:05:17;28.50;89.60
1988;DHT22;12775;46.994;15.498;2022-08-16T09:07:44;28.60;87.80
1988;DHT22;12775;46.994;15.498;2022-08-16T09:10:11;28.70;90.20
1988;DHT22;12775;46.994;15.498;2022-08-16T09:12:39;28.80;84.00
1988;DHT22;12775;46.994;15.498;2022-08-16T09:15:08;28.80;85.10
1988;DHT22;12775;46.994;15.498;2022-08-16T09:17:34;29.00;90.00
1988;DHT22;12775;46.994;15.498;2022-08-16T09:20:03;28.90;89.30
1988;DHT22;12775;46.994;15.498;2022-08-16T09:22:30;28.90;83.50
1988;DHT22;12775;46.994;15.498;2022-08-16T09:24:58;28.80;86.20
1988;DHT22;12775;46.994;15.498;2022-08-16T09:27:25;29.00;85.80
1988;DHT22;12775;46.994;15.498;2022-08-16T09:29:53;29.10;82.20
1988;DHT22;12775;46.994;15.498;2022-08-16T09:32:20;29.10;82.00
1988;DHT22;12775;46.994;15.498;2022-08-16T09:34:47;29.20;74.50
1988;DHT22;12775;46.994;15.498;2022-08-16T09:37:15;29.40;83.40
1988;DHT22;12775;46.994;15.498;2022-08-16T09:39:42;29.70;86.80
1988;DHT22;12775;46.994;15.498;2022-08-16T09:42:10;29.80;82.50
1988;DHT22;12775;46.994;15.498;2022-08-16T09:44:37;29.80;81.90
1988;DHT22;12775;46.994;15.498;2022-08-16T09:47:05;29.70;83.00
1988;DHT22;12775;46.994;15.498;2022-08-16T09:49:32;29.50;81.80
1988;DHT22;12775;46.994;15.498;2022-08-16T09:52:00;29.60;82.50
1988;DHT22;12775;46.994;15.498;2022-08-16T09:54:27;29.70;83.70
1988;DHT22;12775;46.994;15.498;2022-08-16T09:56:55;29.70;78.10
1988;DHT22;12775;46.994;15.498;2022-08-16T09:59:23;29.80;80.40
1988;DHT22;12775;46.994;15.498;2022-08-16T10:01:50;29.90;78.60
1988;DHT22;12775;46.994;15.498;2022-08-16T10:04:17;30.10;85.20
1988;DHT22;12775;46.994;15.498;2022-08-16T10:06:44;30.50;84.70
1988;DHT22;12775;46.994;15.498;2022-08-16T10:09:12;30.70;81.80
1988;DHT22;12775;46.994;15.498;2022-08-16T10:11:39;31.00;78.60
1988;DHT22;12775;46.994;15.498;2022-08-16T10:14:12;31.10;79.50
1988;DHT22;12775;46.994;15.498;2022-08-16T10:16:39;31.40;77.60
1988;DHT22;12775;46.994;15.498;2022-08-16T10:19:07;31.40;71.10
1988;DHT22;12775;46.994;15.498;2022-08-16T10:21:34;31.50;70.30
1988;DHT22;12775;46.994;15.498;2022-08-16T10:24:01;31.70;73.00
1988;DHT22;12775;46.994;15.498;2022-08-16T10:26:29;31.80;68.70
1988;DHT22;12775;46.994;15.498;2022-08-16T10:28:56;31.90;74.80
1988;DHT22;12775;46.994;15.498;2022-08-16T10:31:24;32.10;73.10
1988;DHT22;12775;46.994;15.498;2022-08-16T10:33:51;32.20;72.20
1988;DHT22;12775;46.994;15.498;2022-08-16T10:36:18;32.40;68.00
1988;DHT22;12775;46.994;15.498;2022-08-16T10:38:46;32.40;64.20
1988;DHT22;12775;46.994;15.498;2022-08-16T10:41:13;32.30;65.10
1988;DHT22;12775;46.994;15.498;2022-08-16T10:43:40;32.40;63.50
1988;DHT22;12775;46.994;15.498;2022-08-16T10:46:09;32.50;68.50
1988;DHT22;12775;46.994;15.498;2022-08-16T10:48:35;32.70;68.70
1988;DHT22;12775;46.994;15.498;2022-08-16T10:51:03;32.70;66.40
1988;DHT22;12775;46.994;15.498;2022-08-16T10:53:30;32.90;63.50
1988;DHT22;12775;46.994;15.498;2022-08-16T10:55:58;32.80;67.30
1988;DHT22;12775;46.994;15.498;2022-08-16T10:58:26;32.80;62.30
1988;DHT22;12775;46.994;15.498;2022-08-16T11:00:53;33.00;61.60
1988;DHT22;12775;46.994;15.498;2022-08-16T11:03:20;33.30;68.10
1988;DHT22;12775;46.994;15.498;2022-08-16T11:05:49;32.70;58.10
1988;DHT22;12775;46.994;15.498;2022-08-16T11:08:16;33.10;65.00
1988;DHT22;12775;46.994;15.498;2022-08-16T11:10:44;33.30;61.10
1988;DHT22;12775;46.994;15.498;2022-08-16T11:13:13;33.20;63.10
1988;DHT22;12775;46.994;15.498;2022-08-16T11:15:38;33.00;59.70
1988;DHT22;12775;46.994;15.498;2022-08-16T11:18:06;32.70;56.90
1988;DHT22;12775;46.994;15.498;2022-08-16T11:20:33;32.90;65.30
1988;DHT22;12775;46.994;15.498;2022-08-16T11:23:00;33.20;63.00
1988;DHT22;12775;46.994;15.498;2022-08-16T11:25:29;33.30;61.70
1988;DHT22;12775;46.994;15.498;2022-08-16T11:27:55;33.60;62.20
1988;DHT22;12775;46.994;15.498;2022-08-16T11:30:23;33.60;58.80
1988;DHT22;12775;46.994;15.498;2022-08-16T11:32:50;33.70;61.80
1988;DHT22;12775;46.994;15.498;2022-08-16T11:35:20;33.80;61.60
1988;DHT22;12775;46.994;15.498;2022-08-16T11:37:46;33.70;55.10
1988;DHT22;12775;46.994;15.498;2022-08-16T11:40:13;33.70;56.30
1988;DHT22;12775;46.994;15.498;2022-08-16T11:42:40;33.70;57.50
1988;DHT22;12775;46.994;15.498;2022-08-16T11:45:08;34.00;57.40
1988;DHT22;12775;46.994;15.498;2022-08-16T11:47:35;33.70;54.80
1988;DHT22;12775;46.994;15.498;2022-08-16T11:50:04;33.50;55.70
1988;DHT22;12775;46.994;15.498;2022-08-16T11:52:31;33.40;57.50
1988;DHT22;12775;46.994;15.498;2022-08-16T11:54:58;33.50;59.50
1988;DHT22;12775;46.994;15.498;2022-08-16T11:57:25;33.70;60.90
1988;DHT22;12775;46.994;15.498;2022-08-16T11:59:53;34.00;56.80
1988;DHT22;12775;46.994;15.498;2022-08-16T12:02:19;33.90;56.70
1988;DHT22;12775;46.994;15.498;2022-08-16T12:04:47;33.90;54.40
1988;DHT22;12775;46.994;15.498;2022-08-16T12:07:14;33.90;55.10
1988;DHT22;12775;46.994;15.498;2022-08-16T12:09:41;33.80;53.00
1988;DHT22;12775;46.994;15.498;2022-08-16T12:12:09;34.00;55.10
1988;DHT22;12775;46.994;15.498;2022-08-16T12:14:36;34.10;59.10
1988;DHT22;12775;46.994;15.498;2022-08-16T12:17:04;34.00;55.50
1988;DHT22;12775;46.994;15.498;2022-08-16T12:19:31;33.90;56.20
1988;DHT22;12775;46.994;15.498;2022-08-16T12:21:58;33.60;54.60
1988;DHT22;12775;46.994;15.498;2022-08-16T12:24:26;33.30;53.80
1988;DHT22;12775;46.994;15.498;2022-08-16T12:26:54;33.50;55.80
1988;DHT22;12775;46.994;15.498;2022-08-16T12:29:21;33.50;54.50
1988;DHT22;12775;46.994;15.498;2022-08-16T12:31:49;33.40;57.80
1988;DHT22;12775;46.994;15.498;2022-08-16T12:34:17;33.40;55.90
1988;DHT22;12775;46.994;15.498;2022-08-16T12:36:44;33.30;53.80
1988;DHT22;12775;46.994;15.498;2022-08-16T12:39:12;33.60;55.70
1988;DHT22;12775;46.994;15.498;2022-08-16T12:41:39;33.50;56.90
1988;DHT22;12775;46.994;15.498;2022-08-16T12:44:06;33.70;59.40
1988;DHT22;12775;46.994;15.498;2022-08-16T12:46:33;33.90;54.70
1988;DHT22;12775;46.994;15.498;2022-08-16T12:49:02;34.20;56.40
1988;DHT22;12775;46.994;15.498;2022-08-16T12:51:31;34.30;53.00
1988;DHT22;12775;46.994;15.498;2022-08-16T12:53:59;34.40;57.10
1988;DHT22;12775;46.994;15.498;2022-08-16T12:56:28;34.60;57.80
1988;DHT22;12775;46.994;15.498;2022-08-16T12:58:54;34.70;60.20
1988;DHT22;12775;46.994;15.498;2022-08-16T13:01:22;34.70;58.60
1988;DHT22;12775;46.994;15.498;2022-08-16T13:03:49;34.90;56.60
1988;DHT22;12775;46.994;15.498;2022-08-16T13:06:16;35.00;55.20
1988;DHT22;12775;46.994;15.498;2022-08-16T13:08:43;34.80;55.40
1988;DHT22;12775;46.994;15.498;2022-08-16T13:11:11;34.60;53.70
1988;DHT22;12775;46.994;15.498;2022-08-16T13:13:39;34.50;52.80
1988;DHT22;12775;46.994;15.498;2022-08-16T13:16:06;34.60;59.40
1988;DHT22;12775;46.994;15.498;2022-08-16T13:18:34;34.80;57.90
1988;DHT22;12775;46.994;15.498;2022-08-16T13:21:03;35.00;56.50
1988;DHT22;12775;46.994;15.498;2022-08-16T13:23:29;35.00;56.90
1988;DHT22;12775;46.994;15.498;2022-08-16T13:25:56;35.20;58.70
1988;DHT22;12775;46.994;15.498;2022-08-16T13:28:24;35.50;58.40
1988;DHT22;12775;46.994;15.498;2022-08-16T13:30:53;35.60;53.40
1988;DHT22;12775;46.994;15.498;2022-08-16T13:33:21;35.70;54.80
1988;DHT22;12775;46.994;15.498;2022-08-16T13:35:48;35.80;56.60
1988;DHT22;12775;46.994;15.498;2022-08-16T13:38:14;36.00;55.90
1988;DHT22;12775;46.994;15.498;2022-08-16T13:40:43;36.10;56.20
1988;DHT22;12775;46.994;15.498;2022-08-16T13:43:10;36.20;55.40
1988;DHT22;12775;46.994;15.498;2022-08-16T13:45:37;36.40;57.00
1988;DHT22;12775;46.994;15.498;2022-08-16T13:48:05;36.60;56.40
1988;DHT22;12775;46.994;15.498;2022-08-16T13:50:32;36.80;55.40
1988;DHT22;12775;46.994;15.498;2022-08-16T13:52:59;36.80;53.70
1988;DHT22;12775;46.994;15.498;2022-08-16T13:55:27;36.90;53.20
1988;DHT22;12775;46.994;15.498;2022-08-16T13:57:55;36.90;51.00
1988;DHT22;12775;46.994;15.498;2022-08-16T14:00:22;36.90;53.60
1988;DHT22;12775;46.994;15.498;2022-08-16T14:02:50;36.90;54.60
1988;DHT22;12775;46.994;15.498;2022-08-16T14:05:17;36.80;49.90
1988;DHT22;12775;46.994;15.498;2022-08-16T14:07:45;36.70;51.10
1988;DHT22;12775;46.994;15.498;2022-08-16T14:10:12;36.60;52.10
1988;DHT22;12775;46.994;15.498;2022-08-16T14:12:39;36.60;49.60
1988;DHT22;12775;46.994;15.498;2022-08-16T14:15:08;36.60;51.40
1988;DHT22;12775;46.994;15.498;2022-08-16T14:17:35;36.50;50.60
1988;DHT22;12775;46.994;15.498;2022-08-16T14:20:03;36.40;51.80
1988;DHT22;12775;46.994;15.498;2022-08-16T14:22:32;36.50;51.70
1988;DHT22;12775;46.994;15.498;2022-08-16T14:24:58;36.60;50.50
1988;DHT22;12775;46.994;15.498;2022-08-16T14:27:26;36.50;52.50
1988;DHT22;12775;46.994;15.498;2022-08-16T14:29:53;36.40;51.10
1988;DHT22;12775;46.994;15.498;2022-08-16T14:32:21;36.30;50.90
1988;DHT22;12775;46.994;15.498;2022-08-16T14:34:48;36.30;50.80
1988;DHT22;12775;46.994;15.498;2022-08-16T14:37:16;36.30;52.50
1988;DHT22;12775;46.994;15.498;2022-08-16T14:39:43;36.30;50.30
1988;DHT22;12775;46.994;15.498;2022-08-16T14:42:12;36.30;52.10
1988;DHT22;12775;46.994;15.498;2022-08-16T14:44:38;36.40;51.70
1988;DHT22;12775;46.994;15.498;2022-08-16T14:47:05;36.40;51.70
1988;DHT22;12775;46.994;15.498;2022-08-16T14:49:32;36.60;48.50
1988;DHT22;12775;46.994;15.498;2022-08-16T14:52:05;36.60;50.30
1988;DHT22;12775;46.994;15.498;2022-08-16T14:54:31;36.40;52.20
1988;DHT22;12775;46.994;15.498;2022-08-16T14:57:00;36.40;50.10
1988;DHT22;12775;46.994;15.498;2022-08-16T14:59:27;36.40;53.20
1988;DHT22;12775;46.994;15.498;2022-08-16T15:01:55;36.50;52.80
1988;DHT22;12775;46.994;15.498;2022-08-16T15:04:22;36.40;50.60
1988;DHT22;12775;46.994;15.498;2022-08-16T15:06:49;36.30;50.00
1988;DHT22;12775;46.994;15.498;2022-08-16T15:09:17;36.00;50.60
1988;DHT22;12775;46.994;15.498;2022-08-16T15:11:44;35.90;50.10
1988;DHT22;12775;46.994;15.498;2022-08-16T15:14:11;35.80;49.60
1988;DHT22;12775;46.994;15.498;2022-08-16T15:16:39;35.80;49.00
1988;DHT22;12775;46.994;15.498;2022-08-16T15:19:06;35.80;50.50
1988;DHT22;12775;46.994;15.498;2022-08-16T15:21:34;35.70;52.40
1988;DHT22;12775;46.994;15.498;2022-08-16T15:24:01;35.70;53.20
1988;DHT22;12775;46.994;15.498;2022-08-16T15:26:28;35.70;53.20
1988;DHT22;12775;46.994;15.498;2022-08-16T15:28:56;35.80;53.10
1988;DHT22;12775;46.994;15.498;2022-08-16T15:31:24;35.80;53.00
1988;DHT22;12775;46.994;15.498;2022-08-16T15:33:51;35.90;53.00
1988;DHT22;12775;46.994;15.498;2022-08-16T15:36:19;35.80;52.40